createdAt,value
2017-11-13T00:00:59.233Z,95837.38
2017-11-13T00:02:37.519Z,95852.99
2017-11-13T00:04:13.952Z,95879.81
2017-11-13T00:07:53.716Z,95880.23
2017-11-13T00:09:31.323Z,95841.29
2017-11-13T00:11:08.931Z,95755.89
2017-11-13T00:12:47.539Z,95701.34
2017-11-13T00:14:24.258Z,95694.68
2017-11-13T00:16:01.120Z,95652.62
2017-11-13T00:17:44.555Z,95659.23
2017-11-13T00:19:21.343Z,95676.99
2017-11-13T00:20:57.717Z,95673.45
2017-11-13T00:22:35.728Z,95656.64
2017-11-13T00:24:21.913Z,95669.16
2017-11-13T00:25:59.105Z,95639.42
2017-11-13T00:27:36.609Z,95580.78
2017-11-13T00:29:13.393Z,95554.85
2017-11-13T00:30:50.650Z,95511.73
2017-11-13T00:32:29.047Z,95478.44
2017-11-13T00:34:05.462Z,95487.62
2017-11-13T00:35:42.071Z,95496.18
2017-11-13T00:37:27.522Z,95515.61
2017-11-13T00:39:06.431Z,95562.69
2017-11-13T00:40:45.331Z,95558.25
2017-11-13T00:42:23.518Z,95559.72
2017-11-13T00:44:00.365Z,95543.19
2017-11-13T00:45:37.030Z,95533.31
2017-11-13T00:47:13.417Z,95519.09
2017-11-13T00:48:49.842Z,95522.49
2017-11-13T00:50:28.043Z,95535.95
2017-11-13T00:52:04.631Z,95570.02
2017-11-13T00:53:41.002Z,95607.05
2017-11-13T00:55:17.558Z,95653.64
2017-11-13T00:56:54.234Z,95662.30
2017-11-13T00:58:30.910Z,95643.38
2017-11-13T01:00:22.429Z,95668.37
2017-11-13T01:02:00.204Z,95648.50
2017-11-13T01:03:37.085Z,95656.70
2017-11-13T01:05:18.978Z,95664.94
2017-11-13T01:06:55.626Z,95683.91
2017-11-13T01:08:33.992Z,95745.31
2017-11-13T01:10:12.593Z,95780.05
2017-11-13T01:11:51.296Z,95817.17
2017-11-13T01:13:27.714Z,95827.59
2017-11-13T01:15:04.572Z,95775.41
2017-11-13T01:16:41.235Z,95757.69
2017-11-13T01:18:17.571Z,95732.63
2017-11-13T01:19:53.890Z,95729.62
2017-11-13T01:21:30.211Z,95727.94
2017-11-13T01:23:06.851Z,95721.05
2017-11-13T01:24:43.524Z,95662.72
2017-11-13T01:26:19.847Z,95635.63
2017-11-13T01:27:56.280Z,95593.37
2017-11-13T01:29:32.916Z,95556.70
2017-11-13T01:31:09.377Z,95563.11
2017-11-13T01:32:46.223Z,95575.19
2017-11-13T01:34:22.906Z,95588.08
2017-11-13T01:35:59.685Z,95586.48
2017-11-13T01:37:36.761Z,95580.84
2017-11-13T01:39:13.221Z,95581.59
2017-11-13T01:40:49.883Z,95578.25
2017-11-13T01:42:27.680Z,95559.66
2017-11-13T01:44:04.085Z,95532.16
2017-11-13T01:45:40.791Z,95517.35
2017-11-13T01:47:17.996Z,95489.36
2017-11-13T01:48:55.738Z,95480.71
2017-11-13T01:50:32.428Z,95492.84
2017-11-13T01:52:08.818Z,95501.34
2017-11-13T01:55:54.445Z,95524.30
2017-11-13T01:57:33.399Z,95503.51
2017-11-13T01:59:12.391Z,95471.37
2017-11-13T02:00:48.925Z,95485.45
2017-11-13T02:04:52.730Z,95434.70
2017-11-13T02:06:31.700Z,95456.30
2017-11-13T02:08:10.249Z,95418.77
2017-11-13T02:09:46.912Z,95443.30
2017-11-13T02:11:23.637Z,95481.19
2017-11-13T02:13:00.236Z,95490.38
2017-11-13T02:14:36.693Z,95472.21
2017-11-13T02:16:13.432Z,95539.49
2017-11-13T02:17:49.825Z,95577.41
2017-11-13T02:19:26.493Z,95638.58
2017-11-13T02:21:02.893Z,95668.84
2017-11-13T02:22:40.430Z,95629.58
2017-11-13T02:24:17.228Z,95608.45
2017-11-13T02:25:54.274Z,95570.44
2017-11-13T02:27:31.580Z,95558.92
2017-11-13T02:29:08.144Z,95550.70
2017-11-13T02:30:48.529Z,95548.42
2017-11-13T02:32:27.624Z,95564.43
2017-11-13T02:34:06.222Z,95649.45
2017-11-13T02:35:43.146Z,95634.72
2017-11-13T02:37:19.916Z,95655.16
2017-11-13T02:38:56.388Z,95683.55
2017-11-13T02:40:32.980Z,95657.59
2017-11-13T02:42:13.441Z,95628.38
2017-11-13T02:43:52.230Z,95649.09
2017-11-13T02:45:32.131Z,95707.69
2017-11-13T02:47:10.637Z,95684.87
2017-11-13T02:48:47.589Z,95738.03
2017-11-13T02:50:24.155Z,95730.10
2017-11-13T02:52:01.357Z,95697.86
2017-11-13T02:53:38.115Z,95668.00
2017-11-13T02:55:15.246Z,95609.36
2017-11-13T02:56:52.200Z,95591.14
2017-11-13T02:58:28.760Z,95544.63
2017-11-13T03:00:05.381Z,95526.45
2017-11-13T03:01:41.713Z,95549.32
2017-11-13T03:03:18.555Z,95564.52
2017-11-13T03:04:55.704Z,95585.55
2017-11-13T03:06:31.928Z,95582.10
2017-11-13T03:08:09.288Z,95581.26
2017-11-13T03:09:46.021Z,95615.39
2017-11-13T03:11:23.289Z,95625.73
2017-11-13T03:12:59.545Z,95524.32
2017-11-13T03:14:36.616Z,95472.63
2017-11-13T03:16:13.679Z,95467.05
2017-11-13T03:17:50.002Z,95473.53
2017-11-13T03:19:26.427Z,95452.48
2017-11-13T03:21:02.834Z,95423.15
2017-11-13T03:22:39.597Z,95427.41
2017-11-13T03:24:20.549Z,95451.16
2017-11-13T03:25:59.317Z,95422.19
2017-11-13T03:27:37.522Z,95374.52
2017-11-13T03:29:16.015Z,95355.11
2017-11-13T03:30:53.351Z,95377.94
2017-11-13T03:32:29.792Z,95413.18
2017-11-13T03:34:06.041Z,95438.13
2017-11-13T03:35:42.403Z,95438.67
2017-11-13T03:37:18.696Z,95450.27
2017-11-13T03:38:54.972Z,95468.25
2017-11-13T03:40:31.365Z,95492.48
2017-11-13T03:42:08.963Z,95494.92
2017-11-13T03:43:46.157Z,95498.88
2017-11-13T03:45:24.267Z,95515.28
2017-11-13T03:47:00.623Z,95545.05
2017-11-13T03:48:37.382Z,95582.58
2017-11-13T03:50:13.671Z,95565.22
2017-11-13T03:51:49.895Z,95574.34
2017-11-13T03:53:26.664Z,95537.27
2017-11-13T03:55:03.143Z,95534.21
2017-11-13T03:56:39.653Z,95531.68
2017-11-13T03:58:16.123Z,95527.41
2017-11-13T03:59:52.331Z,95522.58
2017-11-13T04:01:29.471Z,95553.70
2017-11-13T04:03:05.837Z,95568.81
2017-11-13T04:04:42.110Z,95604.61
2017-11-13T04:06:18.549Z,95582.52
2017-11-13T04:07:55.468Z,95543.25
2017-11-13T04:09:31.864Z,95484.25
2017-11-13T04:11:08.947Z,95501.46
2017-11-13T04:12:46.005Z,95481.19
2017-11-13T04:14:24.211Z,95480.23
2017-11-13T04:16:01.606Z,95462.72
2017-11-13T04:17:38.443Z,95474.28
2017-11-13T04:19:14.945Z,95473.53
2017-11-13T04:20:51.927Z,95469.15
2017-11-13T04:22:28.793Z,95475.61
2017-11-13T04:24:08.653Z,95509.21
2017-11-13T04:25:45.476Z,95541.14
2017-11-13T04:27:24.994Z,95548.95
2017-11-13T04:29:03.060Z,95519.16
2017-11-13T04:30:39.990Z,95490.69
2017-11-13T04:32:16.475Z,95510.17
2017-11-13T04:33:53.282Z,95505.31
2017-11-13T04:35:29.502Z,95531.68
2017-11-13T04:37:06.727Z,95534.21
2017-11-13T04:38:43.124Z,95507.89
2017-11-13T04:40:19.998Z,95547.21
2017-11-13T04:41:57.386Z,95582.27
2017-11-13T04:43:34.993Z,95579.94
2017-11-13T04:45:12.911Z,95553.70
2017-11-13T04:46:52.350Z,95574.46
2017-11-13T04:48:29.208Z,95618.40
2017-11-13T04:50:05.734Z,95678.83
2017-11-13T04:51:42.179Z,95692.98
2017-11-13T04:53:19.305Z,95726.25
2017-11-13T04:55:00.146Z,95692.20
2017-11-13T04:56:36.999Z,95663.14
2017-11-13T04:58:14.147Z,95636.05
2017-11-13T04:59:51.196Z,95593.31
2017-11-13T05:01:27.584Z,95554.97
2017-11-13T05:03:04.636Z,95594.63
2017-11-13T05:04:41.057Z,95590.78
2017-11-13T05:06:17.584Z,95576.51
2017-11-13T05:07:54.458Z,95612.75
2017-11-13T05:09:30.707Z,95674.50
2017-11-13T05:11:06.952Z,95708.48
2017-11-13T05:12:44.833Z,95744.84
2017-11-13T05:14:21.452Z,95706.31
2017-11-13T05:15:59.038Z,95728.78
2017-11-13T05:17:35.684Z,95723.27
2017-11-13T05:19:12.439Z,95697.32
2017-11-13T05:20:48.916Z,95693.41
2017-11-13T05:22:26.409Z,95686.08
2017-11-13T05:24:08.060Z,95730.22
2017-11-13T05:25:47.052Z,95740.93
2017-11-13T05:27:26.058Z,95728.47
2017-11-13T05:29:04.052Z,95696.90
2017-11-13T05:30:40.813Z,95682.70
2017-11-13T05:32:21.571Z,95674.08
2017-11-13T05:33:58.581Z,95702.94
2017-11-13T05:35:35.032Z,95733.16
2017-11-13T05:37:11.420Z,95750.88
2017-11-13T05:38:48.070Z,95725.02
2017-11-13T05:40:30.770Z,95738.34
2017-11-13T05:42:13.645Z,95755.75
2017-11-13T05:43:51.758Z,95770.80
2017-11-13T05:45:32.461Z,95784.55
2017-11-13T05:47:08.993Z,95806.66
2017-11-13T05:48:46.849Z,95765.09
2017-11-13T05:50:23.102Z,95752.14
2017-11-13T05:51:59.453Z,95761.23
2017-11-13T05:53:36.019Z,95762.08
2017-11-13T05:55:12.351Z,95748.72
2017-11-13T05:56:49.685Z,95795.77
2017-11-13T05:58:26.265Z,95821.14
2017-11-13T06:00:03.429Z,95870.55
2017-11-13T06:01:40.052Z,95833.84
2017-11-13T06:03:16.342Z,95796.14
2017-11-13T06:04:52.963Z,95819.52
2017-11-13T06:06:30.069Z,95854.09
2017-11-13T06:08:08.261Z,95894.25
2017-11-13T06:09:47.164Z,95947.12
2017-11-13T06:11:25.663Z,95977.39
2017-11-13T06:13:03.865Z,95966.91
2017-11-13T06:14:40.586Z,95981.73
2017-11-13T06:16:17.265Z,95969.56
2017-11-13T06:17:53.834Z,95982.48
2017-11-13T06:19:30.064Z,95991.11
2017-11-13T06:21:06.486Z,95993.33
2017-11-13T06:22:42.933Z,95988.62
2017-11-13T06:24:19.699Z,96043.52
2017-11-13T06:25:55.959Z,96049.52
2017-11-13T06:27:32.384Z,96078.06
2017-11-13T06:29:09.657Z,96081.08
2017-11-13T06:30:47.196Z,96070.74
2017-11-13T06:32:23.492Z,96054.66
2017-11-13T06:34:02.200Z,96058.63
2017-11-13T06:35:41.201Z,96077.70
2017-11-13T06:37:22.705Z,96105.40
2017-11-13T06:38:59.122Z,96089.34
2017-11-13T06:40:35.460Z,96071.64
2017-11-13T06:42:11.844Z,96040.09
2017-11-13T06:43:48.430Z,96001.58
2017-11-13T06:45:26.436Z,95964.86
2017-11-13T06:47:02.740Z,95973.05
2017-11-13T06:48:39.050Z,95958.44
2017-11-13T06:50:15.659Z,95959.70
2017-11-13T06:51:52.001Z,95960.04
2017-11-13T06:53:28.260Z,95976.13
2017-11-13T06:55:09.029Z,96005.89
2017-11-13T06:56:47.501Z,96004.17
2017-11-13T06:58:23.956Z,96001.16
2017-11-13T07:00:00.558Z,96002.01
2017-11-13T07:01:37.279Z,95999.89
2017-11-13T07:03:13.989Z,95974.80
2017-11-13T07:04:51.007Z,95931.61
2017-11-13T07:06:29.117Z,95928.70
2017-11-13T07:08:06.532Z,95909.23
2017-11-13T07:09:43.929Z,95918.17
2017-11-13T07:11:23.712Z,95925.95
2017-11-13T07:13:02.423Z,95928.23
2017-11-13T07:14:41.525Z,95895.69
2017-11-13T07:16:19.474Z,95887.47
2017-11-13T07:17:56.173Z,95870.75
2017-11-13T07:19:32.676Z,95875.79
2017-11-13T07:21:09.252Z,95892.77
2017-11-13T07:22:46.379Z,95920.83
2017-11-13T07:24:30.893Z,95944.16
2017-11-13T07:26:07.499Z,95964.10
2017-11-13T07:27:43.909Z,95967.03
2017-11-13T07:29:20.397Z,95958.44
2017-11-13T07:30:56.865Z,95930.34
2017-11-13T07:32:33.267Z,95913.93
2017-11-13T07:34:10.205Z,95875.00
2017-11-13T07:35:46.515Z,95874.95
2017-11-13T07:37:22.943Z,95905.68
2017-11-13T07:38:59.267Z,95887.11
2017-11-13T07:40:37.035Z,95899.13
2017-11-13T07:42:13.584Z,95933.41
2017-11-13T07:43:50.243Z,95953.31
2017-11-13T07:45:29.105Z,95945.91
2017-11-13T07:47:06.057Z,95910.55
2017-11-13T07:48:44.440Z,95925.64
2017-11-13T07:50:24.138Z,95943.69
2017-11-13T07:52:02.154Z,95975.75
2017-11-13T07:53:38.869Z,95991.75
2017-11-13T07:55:17.130Z,95965.33
2017-11-13T07:56:53.418Z,95942.14
2017-11-13T07:58:30.704Z,95938.11
2017-11-13T08:00:07.659Z,95878.86
2017-11-13T08:01:45.069Z,95885.00
2017-11-13T08:03:21.431Z,95921.72
2017-11-13T08:04:57.873Z,95941.66
2017-11-13T08:06:34.476Z,95848.27
2017-11-13T08:08:12.338Z,95766.58
2017-11-13T08:09:48.799Z,95749.34
2017-11-13T08:11:25.225Z,95724.28
2017-11-13T08:13:01.527Z,95750.23
2017-11-13T08:14:37.880Z,95773.02
2017-11-13T08:16:14.288Z,95789.95
2017-11-13T08:17:50.629Z,95875.00
2017-11-13T08:19:27.602Z,95944.16
2017-11-13T08:21:03.975Z,95987.84
2017-11-13T08:22:40.379Z,96008.95
2017-11-13T08:24:16.620Z,95997.36
2017-11-13T08:25:54.219Z,96002.96
2017-11-13T08:27:40.368Z,95991.33
2017-11-13T08:29:25.075Z,95963.25
2017-11-13T08:31:03.588Z,95972.20
2017-11-13T08:32:42.269Z,95960.19
2017-11-13T08:34:18.972Z,95874.05
2017-11-13T08:35:55.383Z,95843.52
2017-11-13T08:37:32.072Z,95814.59
2017-11-13T08:39:08.695Z,95855.95
2017-11-13T08:40:46.240Z,95920.48
2017-11-13T08:42:22.808Z,95919.64
2017-11-13T08:43:59.741Z,95827.50
2017-11-13T08:45:36.246Z,95742.42
2017-11-13T08:47:13.001Z,95727.41
2017-11-13T08:48:49.513Z,95672.08
2017-11-13T08:50:26.230Z,95676.77
2017-11-13T08:52:02.532Z,95664.41
2017-11-13T08:53:39.003Z,95690.21
2017-11-13T08:55:15.415Z,95745.85
2017-11-13T08:56:52.336Z,95827.88
2017-11-13T08:58:29.237Z,95931.30
2017-11-13T09:00:06.019Z,95966.75
2017-11-13T09:01:42.618Z,95964.63
2017-11-13T09:03:19.417Z,95935.58
2017-11-13T09:04:55.748Z,95948.13
2017-11-13T09:06:32.151Z,95944.30
2017-11-13T09:08:08.894Z,95928.28
2017-11-13T09:09:45.997Z,95895.89
2017-11-13T09:11:22.895Z,95877.59
2017-11-13T09:12:59.269Z,95876.80
2017-11-13T09:14:35.697Z,95870.39
2017-11-13T09:16:12.324Z,95872.30
2017-11-13T09:17:48.950Z,95883.25
2017-11-13T09:19:25.684Z,95906.64
2017-11-13T09:21:02.016Z,95846.86
2017-11-13T09:22:38.736Z,95816.81
2017-11-13T09:24:17.348Z,95835.69
2017-11-13T09:25:53.651Z,95856.85
2017-11-13T09:27:29.917Z,95819.77
2017-11-13T09:29:06.666Z,95774.82
2017-11-13T09:30:48.236Z,95760.70
2017-11-13T09:32:24.547Z,95798.67
2017-11-13T09:34:00.800Z,95839.23
2017-11-13T09:35:37.679Z,95892.82
2017-11-13T09:37:24.732Z,95911.51
2017-11-13T09:39:01.608Z,95843.52
2017-11-13T09:40:39.072Z,95879.88
2017-11-13T09:42:15.783Z,95913.03
2017-11-13T09:43:53.058Z,95950.30
2017-11-13T09:45:29.724Z,96001.27
2017-11-13T09:47:06.103Z,96034.11
2017-11-13T09:48:42.957Z,95999.89
2017-11-13T09:50:19.440Z,96024.67
2017-11-13T09:51:58.612Z,95978.72
2017-11-13T09:53:35.987Z,96012.59
2017-11-13T09:55:12.761Z,96051.78
2017-11-13T09:56:50.071Z,96084.73
2017-11-13T09:58:26.884Z,96109.38
2017-11-13T10:00:03.521Z,96088.66
2017-11-13T10:01:44.930Z,95993.55
2017-11-13T10:03:21.622Z,95971.95
2017-11-13T10:04:58.125Z,96004.81
2017-11-13T10:06:35.553Z,96062.70
2017-11-13T10:08:18.634Z,96077.00
2017-11-13T10:09:55.938Z,96086.91
2017-11-13T10:11:32.337Z,96130.28
2017-11-13T10:13:08.891Z,96124.98
2017-11-13T10:14:47.097Z,96157.01
2017-11-13T10:16:23.813Z,96199.55
2017-11-13T10:18:00.798Z,96178.27
2017-11-13T10:19:37.598Z,96183.92
2017-11-13T10:21:15.335Z,96157.91
2017-11-13T10:22:51.894Z,96224.26
2017-11-13T10:24:28.461Z,96271.11
2017-11-13T10:26:05.201Z,96326.97
2017-11-13T10:27:41.949Z,96404.97
2017-11-13T10:29:18.527Z,96434.70
2017-11-13T10:30:55.161Z,96473.87
2017-11-13T10:32:31.991Z,96529.43
2017-11-13T10:34:09.068Z,96560.71
2017-11-13T10:35:52.195Z,96581.48
2017-11-13T10:37:28.762Z,96621.39
2017-11-13T10:39:06.379Z,96593.56
2017-11-13T10:40:43.308Z,96608.84
2017-11-13T10:42:20.132Z,96581.96
2017-11-13T10:43:56.820Z,96545.09
2017-11-13T10:45:39.498Z,96573.72
2017-11-13T10:47:16.566Z,96548.11
2017-11-13T10:48:53.174Z,96562.83
2017-11-13T10:50:30.498Z,96558.91
2017-11-13T10:52:07.919Z,96507.70
2017-11-13T10:53:45.013Z,96483.44
2017-11-13T10:55:21.772Z,96526.78
2017-11-13T10:56:59.213Z,96554.61
2017-11-13T10:58:35.959Z,96574.62
2017-11-13T11:00:13.124Z,96603.22
2017-11-13T11:01:51.807Z,96619.78
2017-11-13T11:03:29.435Z,96628.88
2017-11-13T11:05:07.121Z,96621.06
2017-11-13T11:06:44.024Z,96627.55
2017-11-13T11:08:21.538Z,96626.70
2017-11-13T11:09:58.196Z,96541.95
2017-11-13T11:11:35.621Z,96507.42
2017-11-13T11:13:12.632Z,96567.66
2017-11-13T11:14:50.120Z,96636.58
2017-11-13T11:16:34.040Z,96682.67
2017-11-13T11:18:11.326Z,96765.63
2017-11-13T11:19:48.989Z,96761.65
2017-11-13T11:21:28.353Z,96755.25
2017-11-13T11:23:05.491Z,96773.92
2017-11-13T11:24:42.200Z,96709.09
2017-11-13T11:26:19.558Z,96734.77
2017-11-13T11:27:56.477Z,96705.16
2017-11-13T11:29:33.038Z,96657.05
2017-11-13T11:31:10.347Z,96604.97
2017-11-13T11:32:47.685Z,96594.59
2017-11-13T11:34:24.217Z,96609.75
2017-11-13T11:36:01.316Z,96619.89
2017-11-13T11:37:38.551Z,96645.50
2017-11-13T11:39:15.878Z,96675.28
2017-11-13T11:40:52.957Z,96667.51
2017-11-13T11:42:29.737Z,96670.94
2017-11-13T11:44:06.871Z,96626.70
2017-11-13T11:45:43.967Z,96611.08
2017-11-13T11:47:21.099Z,96587.75
2017-11-13T11:48:57.800Z,96612.34
2017-11-13T11:50:35.244Z,96635.78
2017-11-13T11:52:12.710Z,96648.39
2017-11-13T11:53:50.418Z,96669.69
2017-11-13T11:55:27.405Z,96658.38
2017-11-13T11:57:07.789Z,96597.97
2017-11-13T11:58:46.692Z,96579.02
2017-11-13T12:00:30.412Z,96569.89
2017-11-13T12:02:10.143Z,96559.86
2017-11-13T12:03:49.948Z,96591.14
2017-11-13T12:05:28.942Z,96647.58
2017-11-13T12:07:05.909Z,96670.94
2017-11-13T12:08:44.480Z,96711.32
2017-11-13T12:10:22.274Z,96721.28
2017-11-13T12:12:01.853Z,96665.20
2017-11-13T12:13:39.177Z,96698.25
2017-11-13T12:15:17.513Z,96703.09
2017-11-13T12:16:56.239Z,96687.40
2017-11-13T12:18:34.974Z,96703.94
2017-11-13T12:20:12.832Z,96699.53
2017-11-13T12:21:51.837Z,96693.61
2017-11-13T12:23:34.266Z,96702.72
2017-11-13T12:25:15.573Z,96668.28
2017-11-13T12:26:58.090Z,96661.78
2017-11-13T12:28:36.227Z,96689.20
2017-11-13T12:30:15.684Z,96654.81
2017-11-13T12:31:55.560Z,96637.06
2017-11-13T12:33:35.859Z,96697.45
2017-11-13T12:35:16.017Z,96724.36
2017-11-13T12:36:54.657Z,96770.31
2017-11-13T12:38:33.410Z,96787.00
2017-11-13T12:40:13.309Z,96771.27
2017-11-13T12:41:52.369Z,96807.85
2017-11-13T12:43:35.095Z,96852.18
2017-11-13T12:45:17.381Z,96856.83
2017-11-13T12:46:55.564Z,96848.14
2017-11-13T12:48:33.031Z,96829.09
2017-11-13T12:50:11.087Z,96746.06
2017-11-13T12:51:50.395Z,96716.20
2017-11-13T12:53:27.640Z,96767.77
2017-11-13T12:55:07.169Z,96764.73
2017-11-13T12:56:45.452Z,96748.29
2017-11-13T12:58:24.683Z,96796.05
2017-11-13T13:00:02.249Z,96796.00
2017-11-13T13:01:41.568Z,96814.25
2017-11-13T13:03:22.288Z,96875.16
2017-11-13T13:05:00.952Z,96879.05
2017-11-13T13:06:40.508Z,96865.08
2017-11-13T13:08:18.481Z,96898.68
2017-11-13T13:09:55.216Z,96937.34
2017-11-13T13:11:35.704Z,96972.59
2017-11-13T13:13:15.466Z,97037.33
2017-11-13T13:14:53.797Z,97067.47
2017-11-13T13:16:35.557Z,97040.50
2017-11-13T13:18:20.357Z,97002.20
2017-11-13T13:20:01.119Z,96900.44
2017-11-13T13:21:43.342Z,96904.42
2017-11-13T13:23:24.048Z,96814.73
2017-11-13T13:25:04.029Z,96770.84
2017-11-13T13:26:46.134Z,96745.27
2017-11-13T13:28:26.569Z,96752.06
2017-11-13T13:30:05.203Z,96767.28
2017-11-13T13:31:43.145Z,96732.12
2017-11-13T13:33:24.229Z,96735.97
2017-11-13T13:35:02.479Z,96717.06
2017-11-13T13:36:42.011Z,96696.08
2017-11-13T13:38:21.143Z,96734.69
2017-11-13T13:40:01.976Z,96789.94
2017-11-13T13:41:46.581Z,96861.67
2017-11-13T13:43:27.574Z,96936.54
2017-11-13T13:45:06.035Z,97011.73
2017-11-13T13:46:44.441Z,97042.65
2017-11-13T13:48:23.954Z,96992.19
2017-11-13T13:50:09.439Z,96952.15
2017-11-13T13:51:48.407Z,96952.70
2017-11-13T13:53:29.528Z,96895.55
2017-11-13T13:55:11.076Z,96879.01
2017-11-13T13:56:55.491Z,96920.88
2017-11-13T13:58:34.426Z,96920.35
2017-11-13T14:00:11.524Z,96936.44
2017-11-13T14:01:54.322Z,96956.08
2017-11-13T14:03:33.310Z,96930.27
2017-11-13T14:05:11.778Z,96900.91
2017-11-13T14:06:52.913Z,96833.36
2017-11-13T14:08:34.144Z,96847.24
2017-11-13T14:10:13.851Z,96889.05
2017-11-13T14:11:58.146Z,96914.23
2017-11-13T14:13:40.683Z,96875.16
2017-11-13T14:15:24.319Z,96840.75
2017-11-13T14:17:04.146Z,96862.47
2017-11-13T14:18:45.223Z,96935.96
2017-11-13T14:20:27.089Z,96983.83
2017-11-13T14:22:07.681Z,96988.63
2017-11-13T14:23:49.517Z,96983.36
2017-11-13T14:25:29.187Z,96959.50
2017-11-13T14:27:06.444Z,96883.80
2017-11-13T14:28:50.533Z,96927.00
2017-11-13T14:30:31.629Z,96965.95
2017-11-13T14:32:17.574Z,97024.74
2017-11-13T14:33:59.664Z,97041.83
2017-11-13T14:35:43.198Z,97006.09
2017-11-13T14:37:27.214Z,97036.51
2017-11-13T14:39:11.950Z,97087.50
2017-11-13T14:40:53.158Z,97120.60
2017-11-13T14:42:35.286Z,97148.38
2017-11-13T14:44:18.167Z,97148.43
2017-11-13T14:46:00.223Z,97073.92
2017-11-13T14:47:40.785Z,97029.91
2017-11-13T14:49:22.240Z,96983.45
2017-11-13T14:51:04.324Z,96970.31
2017-11-13T14:52:43.744Z,96994.23
2017-11-13T14:56:16.697Z,97013.83
2017-11-13T14:58:03.220Z,97051.27
2017-11-13T14:59:51.344Z,97032.52
2017-11-13T15:01:38.607Z,96958.11
2017-11-13T15:03:25.512Z,96928.56
2017-11-13T15:05:08.878Z,96943.83
2017-11-13T15:06:53.211Z,97007.70
2017-11-13T15:08:40.635Z,97073.45
2017-11-13T15:10:25.740Z,97116.23
2017-11-13T15:12:24.532Z,97073.45
2017-11-13T15:14:16.018Z,97004.34
2017-11-13T15:16:03.719Z,96991.57
2017-11-13T15:17:53.122Z,97026.45
2017-11-13T15:19:40.241Z,97040.36
2017-11-13T15:21:25.963Z,97000.67
2017-11-13T15:23:16.348Z,97005.94
2017-11-13T15:25:03.342Z,97037.28
2017-11-13T15:26:56.825Z,97041.22
2017-11-13T15:28:47.844Z,97059.58
2017-11-13T15:30:33.736Z,97005.47
2017-11-13T15:32:30.937Z,96927.66
2017-11-13T15:34:20.527Z,96919.36
2017-11-13T15:36:05.835Z,96868.86
2017-11-13T15:37:56.243Z,96875.50
2017-11-13T15:39:45.745Z,96885.87
2017-11-13T15:41:28.690Z,96878.00
2017-11-13T15:43:12.546Z,96882.79
2017-11-13T15:44:58.920Z,96792.87
2017-11-13T15:46:52.066Z,96791.02
2017-11-13T15:52:37.669Z,96751.08
2017-11-13T15:54:23.645Z,96774.96
2017-11-13T15:56:26.657Z,96827.57
2017-11-13T15:58:15.535Z,96916.76
2017-11-13T16:02:00.164Z,97027.20
2017-11-13T16:03:47.034Z,97074.72
2017-11-13T16:05:38.340Z,97113.42
2017-11-13T16:07:24.532Z,97132.14
2017-11-13T16:09:10.345Z,97167.14
2017-11-13T16:10:59.057Z,97187.47
2017-11-13T16:12:47.239Z,97193.17
2017-11-13T16:16:19.364Z,97205.34
2017-11-13T16:18:18.961Z,97222.78
2017-11-13T16:20:17.674Z,97201.88
2017-11-13T16:22:05.840Z,97158.69
2017-11-13T16:24:06.443Z,97030.20
2017-11-13T16:25:58.755Z,96932.83
2017-11-13T16:27:45.068Z,96860.13
2017-11-13T16:29:36.182Z,96849.23
2017-11-13T16:31:26.538Z,96787.61
2017-11-13T16:33:12.159Z,96711.93
2017-11-13T16:35:00.447Z,96667.22
2017-11-13T16:36:53.246Z,96629.95
2017-11-13T16:38:48.055Z,96580.84
2017-11-13T16:40:38.980Z,96586.58
2017-11-13T16:42:35.984Z,96587.30
2017-11-13T16:44:26.665Z,96612.42
2017-11-13T16:46:16.058Z,96637.24
2017-11-13T16:48:07.360Z,96676.64
2017-11-13T16:49:57.568Z,96727.14
2017-11-13T16:51:46.757Z,96761.34
2017-11-13T16:53:32.876Z,96772.67
2017-11-13T16:55:20.829Z,96792.34
2017-11-13T16:57:05.453Z,96757.41
2017-11-13T16:58:59.484Z,96645.42
2017-11-13T17:00:49.879Z,96536.51
2017-11-13T17:02:52.164Z,96480.52
2017-11-13T17:04:37.934Z,96417.66
2017-11-13T17:06:22.333Z,96421.07
2017-11-13T17:08:18.068Z,96419.37
2017-11-13T17:10:15.301Z,96439.80
2017-11-13T17:12:07.597Z,96442.30
2017-11-13T17:13:56.894Z,96438.38
2017-11-13T17:15:46.898Z,96402.44
2017-11-13T17:17:38.925Z,96399.78
2017-11-13T17:19:29.106Z,96411.56
2017-11-13T17:21:24.228Z,96406.73
2017-11-13T17:23:17.594Z,96382.95
2017-11-13T17:25:29.539Z,96370.84
2017-11-13T17:27:22.928Z,96401.11
2017-11-13T17:29:12.182Z,96356.53
2017-11-13T17:31:05.207Z,96299.14
2017-11-13T17:32:50.449Z,96239.78
2017-11-13T17:34:34.510Z,96241.61
2017-11-13T17:36:20.109Z,96277.55
2017-11-13T17:40:13.895Z,96286.67
2017-11-13T17:42:13.523Z,96339.97
2017-11-13T17:43:59.660Z,96332.66
2017-11-13T17:45:48.818Z,96352.55
2017-11-13T17:47:45.096Z,96342.48
2017-11-13T17:51:37.550Z,96276.70
2017-11-13T17:53:33.704Z,96294.73
2017-11-13T17:55:22.072Z,96293.12
2017-11-13T17:57:23.762Z,96271.83
2017-11-13T17:59:14.496Z,96287.94
2017-11-13T18:01:03.565Z,96291.48
2017-11-13T18:02:52.529Z,96278.30
2017-11-13T18:04:44.638Z,96247.54
2017-11-13T18:06:29.685Z,96239.84
2017-11-13T18:08:23.535Z,96271.83
2017-11-13T18:10:13.917Z,96292.23
2017-11-13T18:12:01.719Z,96271.30
2017-11-13T18:13:51.594Z,96233.66
2017-11-13T18:15:44.655Z,96225.03
2017-11-13T18:17:29.290Z,96193.70
2017-11-13T18:19:24.287Z,96186.05
2017-11-13T18:21:19.598Z,96173.96
2017-11-13T18:23:09.300Z,96186.48
2017-11-13T18:24:56.095Z,96192.20
2017-11-13T18:26:44.655Z,96208.95
2017-11-13T18:28:34.710Z,96258.83
2017-11-13T18:30:24.533Z,96294.31
2017-11-13T18:32:11.740Z,96285.23
2017-11-13T18:33:59.591Z,96267.38
2017-11-13T18:35:55.019Z,96258.34
2017-11-13T18:37:57.414Z,96273.52
2017-11-13T18:39:47.997Z,96233.16
2017-11-13T18:41:51.511Z,96196.34
2017-11-13T18:43:41.871Z,96149.55
2017-11-13T18:45:34.193Z,96158.71
2017-11-13T18:47:38.472Z,96147.80
2017-11-13T18:51:32.029Z,96154.90
2017-11-13T18:53:23.471Z,96152.14
2017-11-13T18:55:16.065Z,96193.70
2017-11-13T18:57:07.288Z,96202.38
2017-11-13T18:59:01.763Z,96127.88
2017-11-13T19:01:04.370Z,96160.94
2017-11-13T19:02:56.388Z,96181.66
2017-11-13T19:04:53.260Z,96214.09
2017-11-13T19:06:47.863Z,96271.77
2017-11-13T19:08:45.185Z,96292.09
2017-11-13T19:10:31.069Z,96283.85
2017-11-13T19:13:54.273Z,96298.55
2017-11-13T19:15:47.115Z,96365.35
2017-11-13T19:17:47.202Z,96416.03
2017-11-13T19:19:30.689Z,96418.63
2017-11-13T19:21:14.585Z,96427.72
2017-11-13T19:23:04.199Z,96351.07
2017-11-13T19:24:52.784Z,96338.88
2017-11-13T19:26:42.958Z,96350.59
2017-11-13T19:28:27.872Z,96328.09
2017-11-13T19:30:16.448Z,96298.23
2017-11-13T19:32:09.534Z,96284.75
2017-11-13T19:33:55.414Z,96316.44
2017-11-13T19:35:45.116Z,96306.40
2017-11-13T19:39:22.970Z,96311.87
2017-11-13T19:41:11.472Z,96369.70
2017-11-13T19:42:56.315Z,96391.83
2017-11-13T19:44:46.871Z,96404.31
2017-11-13T19:46:37.860Z,96401.80
2017-11-13T19:48:26.691Z,96373.20
2017-11-13T19:50:12.673Z,96347.99
2017-11-13T19:51:57.869Z,96359.67
2017-11-13T19:53:42.357Z,96364.55
2017-11-13T19:55:28.655Z,96392.67
2017-11-13T19:57:13.731Z,96413.86
2017-11-13T19:58:55.325Z,96424.22
2017-11-13T20:00:40.656Z,96429.05
2017-11-13T20:02:21.825Z,96449.05
2017-11-13T20:04:02.998Z,96416.94
2017-11-13T20:05:48.837Z,96466.78
2017-11-13T20:07:29.977Z,96555.00
2017-11-13T20:09:15.680Z,96570.52